createdAt,value
2019-05-02T00:00:12.956Z,91.80
2019-05-02T00:02:43.680Z,91.10
2019-05-02T00:05:14.082Z,90.80
2019-05-02T00:07:43.997Z,90.90
2019-05-02T00:10:20.039Z,91.20
2019-05-02T00:12:47.585Z,91.50
2019-05-02T00:15:18.421Z,91.70
2019-05-02T00:17:48.233Z,91.80
2019-05-02T00:20:21.309Z,92.10
2019-05-02T00:22:52.298Z,92.30
2019-05-02T00:25:20.334Z,92.50
2019-05-02T00:27:49.617Z,92.50
2019-05-02T00:30:19.073Z,92.00
2019-05-02T00:32:48.645Z,92.00
2019-05-02T00:35:18.255Z,92.10
2019-05-02T00:37:47.861Z,92.50
2019-05-02T00:40:20.245Z,91.90
2019-05-02T00:42:48.475Z,92.00
2019-05-02T00:45:18.645Z,92.00
2019-05-02T00:48:02.425Z,91.80
2019-05-02T00:50:35.873Z,92.30
2019-05-02T00:53:07.258Z,92.20
2019-05-02T00:55:36.313Z,91.70
2019-05-02T00:58:05.592Z,92.30
2019-05-02T01:00:39.921Z,92.60
2019-05-02T01:03:11.097Z,94.30
2019-05-02T01:05:40.588Z,94.40
2019-05-02T01:08:10.295Z,93.80
2019-05-02T01:10:39.589Z,93.30
2019-05-02T01:13:08.946Z,93.00
2019-05-02T01:15:39.180Z,92.70
2019-05-02T01:18:09.221Z,92.50
2019-05-02T01:20:38.581Z,92.50
2019-05-02T01:23:08.148Z,91.60
2019-05-02T01:25:37.761Z,91.90
2019-05-02T01:28:17.538Z,92.70
2019-05-02T01:31:03.825Z,93.50
2019-05-02T01:33:41.836Z,93.70
2019-05-02T01:36:13.688Z,93.00
2019-05-02T01:38:44.921Z,93.00
2019-05-02T01:41:14.211Z,92.70
2019-05-02T01:43:43.493Z,93.00
2019-05-02T01:46:17.119Z,92.90
2019-05-02T01:48:45.588Z,92.60
2019-05-02T01:51:15.238Z,91.90
2019-05-02T01:53:44.517Z,91.70
2019-05-02T01:56:14.275Z,91.90
2019-05-02T01:58:43.870Z,92.50
2019-05-02T02:01:16.346Z,92.10
2019-05-02T02:03:45.524Z,92.10
2019-05-02T02:06:15.453Z,92.30
2019-05-02T02:08:44.742Z,92.40
2019-05-02T02:11:14.021Z,92.10
2019-05-02T02:13:43.311Z,91.80
2019-05-02T02:16:12.590Z,91.30
2019-05-02T02:18:46.184Z,91.50
2019-05-02T02:21:20.025Z,91.70
2019-05-02T02:24:01.541Z,91.80
2019-05-02T02:26:30.816Z,91.80
2019-05-02T02:29:03.017Z,92.60
2019-05-02T02:31:31.368Z,93.00
2019-05-02T02:34:00.974Z,93.90
2019-05-02T02:36:33.863Z,96.90
2019-05-02T02:39:07.146Z,97.40
2019-05-02T02:41:34.077Z,96.00
2019-05-02T02:44:15.485Z,95.30
2019-05-02T02:46:46.541Z,94.70
2019-05-02T02:49:21.299Z,93.80
2019-05-02T02:51:47.191Z,92.80
2019-05-02T02:54:16.537Z,93.00
2019-05-02T02:56:45.816Z,93.30
2019-05-02T02:59:19.362Z,93.70
2019-05-02T03:01:46.128Z,94.30
2019-05-02T03:04:15.419Z,94.40
2019-05-02T03:06:47.120Z,95.10
2019-05-02T03:09:20.357Z,96.00
2019-05-02T03:11:49.162Z,95.30
2019-05-02T03:14:20.457Z,95.00
2019-05-02T03:16:49.812Z,94.90
2019-05-02T03:19:21.350Z,94.50
2019-05-02T03:21:54.617Z,94.80
2019-05-02T03:24:25.193Z,95.00
2019-05-02T03:26:56.112Z,95.20
2019-05-02T03:29:39.796Z,95.40
2019-05-02T03:32:11.567Z,95.70
2019-05-02T03:34:44.940Z,96.00
2019-05-02T03:37:03.187Z,96.10
2019-05-02T03:39:30.773Z,96.00
2019-05-02T03:42:02.717Z,96.50
2019-05-02T03:44:31.842Z,96.80
2019-05-02T03:47:04.674Z,96.60
2019-05-02T03:49:32.440Z,96.80
2019-05-02T03:52:05.752Z,97.00
2019-05-02T03:54:32.710Z,97.30
2019-05-02T03:57:02.326Z,98.50
2019-05-02T03:59:38.660Z,98.60
2019-05-02T04:02:02.969Z,98.80
2019-05-02T04:04:32.538Z,99.20
2019-05-02T04:07:03.473Z,99.20
2019-05-02T04:09:40.054Z,99.90
2019-05-02T04:12:17.736Z,99.90
2019-05-02T04:14:39.797Z,99.90
2019-05-02T04:17:10.846Z,99.90
2019-05-02T04:19:41.026Z,99.90
2019-05-02T04:22:11.970Z,99.90
2019-05-02T04:24:47.953Z,99.90
2019-05-02T04:27:13.422Z,99.90
2019-05-02T04:29:42.877Z,99.90
2019-05-02T04:32:14.486Z,99.90
2019-05-02T04:34:48.957Z,99.70
2019-05-02T04:37:14.549Z,99.70
2019-05-02T04:39:43.889Z,99.70
2019-05-02T04:42:19.470Z,99.90
2019-05-02T04:44:59.969Z,99.90
2019-05-02T04:47:20.848Z,99.90
2019-05-02T04:49:49.119Z,99.90
2019-05-02T04:52:20.924Z,99.90
2019-05-02T04:54:48.880Z,99.90
2019-05-02T04:57:19.710Z,99.90
2019-05-02T04:59:50.512Z,99.90
2019-05-02T05:02:29.841Z,99.90
2019-05-02T05:04:51.290Z,99.90
2019-05-02T05:07:20.581Z,99.90
2019-05-02T05:09:57.066Z,99.90
2019-05-02T05:12:20.869Z,99.90
2019-05-02T05:14:50.442Z,99.90
2019-05-02T05:17:20.173Z,99.90
2019-05-02T05:19:49.523Z,99.90
2019-05-02T05:22:19.058Z,99.90
2019-05-02T05:24:58.104Z,99.90
2019-05-02T05:27:27.528Z,99.90
2019-05-02T05:30:02.271Z,99.90
2019-05-02T05:32:29.186Z,99.90
2019-05-02T05:35:03.193Z,99.90
2019-05-02T05:37:29.723Z,99.90
2019-05-02T05:39:59.243Z,99.90
2019-05-02T05:42:32.661Z,99.90
2019-05-02T05:45:03.667Z,99.90
2019-05-02T05:47:30.675Z,99.90
2019-05-02T05:50:01.252Z,99.90
2019-05-02T05:52:33.242Z,99.90
2019-05-02T05:55:04.910Z,99.90
2019-05-02T05:57:33.925Z,99.90
2019-05-02T06:00:11.848Z,99.90
2019-05-02T06:02:50.826Z,99.90
2019-05-02T06:05:08.877Z,99.90
2019-05-02T06:07:41.796Z,99.90
2019-05-02T06:10:10.084Z,99.90
2019-05-02T06:12:39.368Z,99.90
2019-05-02T06:15:08.881Z,99.90
2019-05-02T06:17:38.173Z,99.90
2019-05-02T06:20:07.593Z,99.90
2019-05-02T06:22:36.884Z,99.90
2019-05-02T06:25:10.328Z,99.90
2019-05-02T06:27:39.753Z,99.90
2019-05-02T06:30:09.769Z,99.90
2019-05-02T06:32:39.133Z,99.90
2019-05-02T06:35:08.916Z,99.90
2019-05-02T06:37:40.739Z,99.90
2019-05-02T06:40:10.568Z,99.90
2019-05-02T06:42:40.113Z,99.90
2019-05-02T06:45:10.133Z,99.90
2019-05-02T06:47:41.810Z,99.90
2019-05-02T06:50:10.678Z,99.90
2019-05-02T06:52:40.278Z,99.90
2019-05-02T06:55:10.201Z,99.90
2019-05-02T06:57:39.491Z,99.90
2019-05-02T07:00:10.578Z,99.90
2019-05-02T07:02:39.868Z,99.80
2019-05-02T07:05:09.604Z,99.90
2019-05-02T07:07:39.172Z,99.40
2019-05-02T07:10:09.077Z,98.70
2019-05-02T07:12:38.366Z,98.50
2019-05-02T07:15:09.943Z,98.40
2019-05-02T07:17:43.563Z,98.00
2019-05-02T07:20:13.385Z,97.80
2019-05-02T07:22:45.577Z,97.80
2019-05-02T07:25:16.814Z,97.10
2019-05-02T07:27:46.288Z,96.50
2019-05-02T07:30:17.205Z,91.20
2019-05-02T07:32:46.500Z,90.60
2019-05-02T07:35:19.131Z,91.30
2019-05-02T07:37:48.795Z,91.70
2019-05-02T07:40:18.947Z,91.50
2019-05-02T07:42:48.323Z,89.70
2019-05-02T07:45:17.949Z,90.30
2019-05-02T07:47:47.225Z,90.90
2019-05-02T07:50:16.756Z,90.60
2019-05-02T07:52:46.037Z,89.70
2019-05-02T07:55:15.465Z,89.00
2019-05-02T07:57:45.054Z,88.50
2019-05-02T08:00:15.610Z,88.00
2019-05-02T08:02:44.988Z,88.70
2019-05-02T08:05:15.748Z,88.50
2019-05-02T08:07:46.233Z,89.20
2019-05-02T08:10:22.193Z,88.70
2019-05-02T08:12:47.909Z,90.40
2019-05-02T08:15:17.441Z,90.40
2019-05-02T08:17:53.229Z,90.70
2019-05-02T08:20:19.353Z,90.20
2019-05-02T08:22:50.354Z,89.20
2019-05-02T08:25:20.354Z,89.70
2019-05-02T08:27:51.275Z,88.70
2019-05-02T08:30:22.971Z,89.30
2019-05-02T08:32:52.245Z,89.20
2019-05-02T08:35:22.604Z,88.80
2019-05-02T08:37:51.881Z,88.50
2019-05-02T08:40:21.482Z,87.60
2019-05-02T08:42:51.090Z,87.70
2019-05-02T08:45:20.377Z,88.00
2019-05-02T08:47:49.657Z,88.10
2019-05-02T08:50:19.187Z,89.20
2019-05-02T08:52:48.713Z,89.10
2019-05-02T08:55:18.010Z,88.20
2019-05-02T08:57:47.288Z,87.80
2019-05-02T09:00:17.169Z,88.10
2019-05-02T09:02:46.730Z,87.40
2019-05-02T09:05:16.485Z,86.50
2019-05-02T09:07:45.761Z,85.10
2019-05-02T09:10:15.488Z,85.30
2019-05-02T09:12:45.561Z,85.30
2019-05-02T09:15:15.369Z,85.70
2019-05-02T09:17:52.808Z,85.50
2019-05-02T09:20:21.034Z,85.30
2019-05-02T09:22:54.028Z,85.10
2019-05-02T09:25:19.553Z,84.90
2019-05-02T09:27:48.838Z,85.70
2019-05-02T09:30:24.210Z,86.10
2019-05-02T09:32:51.995Z,83.10
2019-05-02T09:35:22.910Z,83.10
2019-05-02T09:37:52.256Z,82.70
2019-05-02T09:40:22.246Z,83.10
2019-05-02T09:42:53.464Z,83.00
2019-05-02T09:45:27.804Z,83.50
2019-05-02T09:48:04.025Z,82.70
2019-05-02T09:50:31.378Z,82.70
2019-05-02T09:52:58.362Z,82.70
2019-05-02T09:55:27.990Z,83.20
2019-05-02T09:57:57.276Z,83.40
2019-05-02T10:00:39.134Z,83.40
2019-05-02T10:03:08.669Z,82.50
2019-05-02T10:05:37.957Z,82.00
2019-05-02T10:08:10.757Z,81.80
2019-05-02T10:10:42.563Z,82.40
2019-05-02T10:13:09.389Z,82.40
2019-05-02T10:15:38.736Z,82.60
2019-05-02T10:18:11.369Z,82.70
2019-05-02T10:20:41.741Z,81.30
2019-05-02T10:23:11.966Z,79.70
2019-05-02T10:25:46.818Z,81.00
2019-05-02T10:28:14.884Z,81.40
2019-05-02T10:30:47.412Z,81.40
2019-05-02T10:33:15.657Z,80.60
2019-05-02T10:35:46.584Z,81.60
2019-05-02T10:38:19.423Z,81.30
2019-05-02T10:40:48.337Z,82.10
2019-05-02T10:43:18.258Z,81.50
2019-05-02T10:45:52.788Z,81.30
2019-05-02T10:48:27.488Z,81.50
2019-05-02T10:50:53.633Z,81.20
2019-05-02T10:53:22.992Z,80.70
2019-05-02T10:55:52.560Z,78.80
2019-05-02T10:58:25.820Z,80.20
2019-05-02T11:00:53.092Z,80.50
2019-05-02T11:03:31.821Z,80.50
2019-05-02T11:06:07.406Z,81.00
2019-05-02T11:08:36.670Z,79.70
2019-05-02T11:11:06.287Z,79.90
2019-05-02T11:13:37.623Z,80.10
2019-05-02T11:16:21.738Z,79.20
2019-05-02T11:18:58.589Z,78.90
2019-05-02T11:21:27.937Z,78.90
2019-05-02T11:23:57.346Z,78.90
2019-05-02T11:26:27.751Z,78.90
2019-05-02T11:28:57.285Z,78.90
2019-05-02T11:31:26.709Z,77.60
2019-05-02T11:33:56.004Z,77.70
2019-05-02T11:36:27.468Z,77.80
2019-05-02T11:39:05.289Z,77.40
2019-05-02T11:41:27.540Z,76.70
2019-05-02T11:43:56.831Z,76.90
2019-05-02T11:46:26.109Z,76.60
2019-05-02T11:48:58.555Z,76.20
2019-05-02T11:51:26.840Z,75.90
2019-05-02T11:53:59.327Z,75.70
2019-05-02T11:56:27.102Z,75.70
2019-05-02T11:58:56.694Z,76.20
2019-05-02T12:01:37.092Z,74.80
2019-05-02T12:03:57.478Z,75.30
2019-05-02T12:06:26.757Z,75.10
2019-05-02T12:08:56.041Z,74.80
2019-05-02T12:11:25.394Z,74.40
2019-05-02T12:13:56.979Z,74.50
2019-05-02T12:16:26.286Z,73.70
2019-05-02T12:19:08.506Z,74.80
2019-05-02T12:21:26.625Z,74.60
2019-05-02T12:23:55.914Z,71.90
2019-05-02T12:26:25.542Z,73.70
2019-05-02T12:28:54.828Z,72.80
2019-05-02T12:31:26.590Z,72.50
2019-05-02T12:33:56.677Z,72.60
2019-05-02T12:36:26.334Z,72.70
2019-05-02T12:38:55.646Z,73.00
2019-05-02T12:41:25.364Z,69.20
2019-05-02T12:43:55.050Z,68.90
2019-05-02T12:46:24.336Z,68.70
2019-05-02T12:48:53.853Z,68.10
2019-05-02T12:51:23.136Z,69.20
2019-05-02T12:53:52.934Z,69.20
2019-05-02T12:56:23.043Z,69.30
2019-05-02T12:58:53.089Z,70.40
2019-05-02T13:01:23.578Z,68.70
2019-05-02T13:04:00.212Z,67.80
2019-05-02T13:06:29.493Z,68.30
2019-05-02T13:08:59.025Z,69.00
2019-05-02T13:11:32.124Z,68.70
2019-05-02T13:14:02.245Z,69.10
2019-05-02T13:16:33.514Z,69.10
2019-05-02T13:19:06.046Z,68.90
2019-05-02T13:21:43.039Z,69.40
2019-05-02T13:24:16.422Z,66.40
2019-05-02T13:26:45.417Z,66.20
2019-05-02T13:29:14.693Z,67.00
2019-05-02T13:31:45.621Z,66.30
2019-05-02T13:34:22.705Z,66.50
2019-05-02T13:36:53.366Z,66.50
2019-05-02T13:39:42.337Z,68.00
2019-05-02T13:42:12.669Z,67.30
2019-05-02T13:44:43.641Z,66.20
2019-05-02T13:47:14.837Z,67.20
2019-05-02T13:49:53.595Z,67.40
2019-05-02T13:52:15.113Z,67.30
2019-05-02T13:54:44.388Z,66.60
2019-05-02T13:57:14.004Z,66.90
2019-05-02T13:59:43.281Z,67.40
2019-05-02T14:02:35.059Z,67.10
2019-05-02T14:05:07.412Z,66.50
2019-05-02T14:07:36.955Z,66.90
2019-05-02T14:10:08.710Z,67.50
2019-05-02T14:12:52.813Z,66.60
2019-05-02T14:15:23.888Z,66.90
2019-05-02T14:17:53.189Z,66.70
2019-05-02T14:20:22.667Z,67.30
2019-05-02T14:22:52.678Z,66.90
2019-05-02T14:25:22.581Z,66.70
2019-05-02T14:27:55.485Z,67.20
2019-05-02T14:30:35.957Z,66.40
2019-05-02T14:32:57.981Z,66.70
2019-05-02T14:35:28.973Z,67.20
2019-05-02T14:38:13.154Z,67.30
2019-05-02T14:41:03.285Z,67.30
2019-05-02T14:43:53.189Z,66.30
2019-05-02T14:46:23.841Z,67.70
2019-05-02T14:48:53.310Z,67.10
2019-05-02T14:51:27.745Z,68.30
2019-05-02T14:53:57.217Z,66.70
2019-05-02T14:56:47.789Z,67.50
2019-05-02T14:59:19.621Z,67.00
2019-05-02T15:01:50.184Z,67.80
2019-05-02T15:04:19.798Z,67.60
2019-05-02T15:06:49.096Z,67.40
2019-05-02T15:12:18.859Z,68.30
2019-05-02T15:14:49.803Z,69.70
2019-05-02T15:17:18.929Z,72.40
2019-05-02T15:19:48.332Z,73.60
2019-05-02T15:22:18.089Z,74.50
2019-05-02T15:24:48.137Z,75.50
2019-05-02T15:27:17.978Z,75.60
2019-05-02T15:29:47.625Z,76.20
2019-05-02T15:32:22.232Z,76.40
2019-05-02T15:35:05.503Z,76.60
2019-05-02T15:37:35.995Z,77.20
2019-05-02T15:42:42.232Z,77.30
2019-05-02T15:45:12.496Z,77.40
2019-05-02T15:47:45.168Z,78.50
2019-05-02T15:50:14.801Z,79.20
2019-05-02T15:52:46.264Z,78.90
2019-05-02T15:55:15.760Z,79.00
2019-05-02T15:57:46.445Z,79.10
2019-05-02T16:00:25.700Z,79.10
2019-05-02T16:02:56.391Z,79.50
2019-05-02T16:05:25.150Z,79.10
2019-05-02T16:08:05.309Z,79.60
2019-05-02T16:10:25.522Z,80.20
2019-05-02T16:12:55.322Z,81.20
2019-05-02T16:15:26.528Z,81.70
2019-05-02T16:17:56.891Z,81.50
2019-05-02T16:20:32.347Z,81.00
2019-05-02T16:23:02.003Z,81.20
2019-05-02T16:25:32.029Z,81.80
2019-05-02T16:28:05.970Z,82.10
2019-05-02T16:30:36.918Z,83.90
2019-05-02T16:33:07.975Z,85.80
2019-05-02T16:35:36.277Z,89.90
2019-05-02T16:38:05.817Z,91.70
2019-05-02T16:40:35.119Z,93.60
2019-05-02T16:43:04.724Z,93.90
2019-05-02T16:45:34.013Z,94.80
2019-05-02T16:48:03.639Z,95.40
2019-05-02T16:50:36.738Z,95.90
2019-05-02T16:53:03.971Z,97.00
2019-05-02T16:55:33.592Z,97.20
2019-05-02T16:58:07.162Z,98.10
2019-05-02T17:00:37.128Z,97.70
2019-05-02T17:03:05.152Z,98.40
2019-05-02T17:05:34.676Z,99.90
2019-05-02T17:08:10.604Z,99.00
2019-05-02T17:10:47.495Z,99.50
2019-05-02T17:13:16.454Z,99.30
2019-05-02T17:15:45.808Z,99.70
2019-05-02T17:18:18.232Z,99.90
2019-05-02T17:20:52.032Z,99.50
2019-05-02T17:23:17.649Z,97.60
2019-05-02T17:25:47.001Z,96.10
2019-05-02T17:28:16.654Z,97.30
2019-05-02T17:30:45.985Z,96.80
2019-05-02T17:33:16.394Z,98.80
2019-05-02T17:35:49.935Z,99.80
2019-05-02T17:38:19.082Z,99.30
2019-05-02T17:40:48.447Z,98.90
2019-05-02T17:43:17.732Z,99.10
2019-05-02T17:45:47.950Z,99.40
2019-05-02T17:48:17.830Z,98.30
2019-05-02T17:50:59.287Z,98.40
2019-05-02T17:53:27.015Z,98.20
2019-05-02T17:55:56.378Z,98.00
2019-05-02T17:58:25.685Z,98.20
2019-05-02T18:00:57.242Z,97.70
2019-05-02T18:03:30.941Z,98.30
2019-05-02T18:05:58.489Z,98.60
2019-05-02T18:08:27.826Z,99.40
2019-05-02T18:11:00.059Z,98.90
2019-05-02T18:13:29.099Z,99.00
2019-05-02T18:15:59.395Z,99.00
2019-05-02T18:18:28.955Z,98.60
2019-05-02T18:20:58.229Z,98.20
2019-05-02T18:23:27.761Z,98.40
2019-05-02T18:26:02.007Z,97.70
2019-05-02T18:28:28.457Z,98.30
2019-05-02T18:31:04.523Z,97.60
2019-05-02T18:33:29.068Z,98.00
2019-05-02T18:36:01.803Z,97.90
2019-05-02T18:38:32.450Z,98.10
2019-05-02T18:41:06.008Z,98.30
2019-05-02T18:43:36.065Z,98.60
2019-05-02T18:46:07.516Z,98.30
2019-05-02T18:48:36.609Z,99.20
2019-05-02T18:51:06.970Z,99.40
2019-05-02T18:53:36.574Z,98.50
2019-05-02T18:56:06.200Z,98.20
2019-05-02T18:58:36.239Z,98.30
2019-05-02T19:01:08.413Z,99.30
2019-05-02T19:03:37.825Z,99.00
2019-05-02T19:06:07.117Z,99.00
2019-05-02T19:08:46.740Z,98.80
2019-05-02T19:11:12.338Z,99.80
2019-05-02T19:13:42.771Z,99.00
2019-05-02T19:16:13.502Z,99.00
2019-05-02T19:18:42.857Z,99.70
2019-05-02T19:21:12.666Z,99.90
2019-05-02T19:23:42.591Z,99.90
2019-05-02T19:26:15.035Z,99.90
2019-05-02T19:28:44.634Z,99.90
2019-05-02T19:31:13.919Z,99.90
2019-05-02T19:33:44.170Z,99.90
2019-05-02T19:36:16.329Z,99.90
2019-05-02T19:38:44.582Z,99.90
2019-05-02T19:41:13.876Z,99.90
2019-05-02T19:43:49.266Z,99.90
2019-05-02T19:46:16.831Z,99.90
2019-05-02T19:48:45.777Z,99.90
2019-05-02T19:51:18.697Z,99.90
2019-05-02T19:53:46.428Z,99.90
2019-05-02T19:56:16.509Z,99.90
2019-05-02T19:59:07.798Z,99.90
2019-05-02T20:01:37.267Z,99.90
2019-05-02T20:04:09.394Z,99.90
2019-05-02T20:06:37.909Z,99.90
2019-05-02T20:09:08.487Z,99.90
2019-05-02T20:11:39.429Z,99.90
2019-05-02T20:14:09.610Z,99.90
2019-05-02T20:16:45.855Z,99.90
2019-05-02T20:19:17.284Z,99.90
2019-05-02T20:21:52.064Z,99.90
2019-05-02T20:24:24.094Z,99.90
2019-05-02T20:26:56.122Z,99.90
2019-05-02T20:29:24.518Z,99.90
2019-05-02T20:31:53.806Z,99.90
2019-05-02T20:34:23.096Z,99.90
2019-05-02T20:36:52.382Z,99.90
2019-05-02T20:39:22.480Z,99.90
2019-05-02T20:41:53.068Z,99.90
2019-05-02T20:44:22.481Z,99.90
2019-05-02T20:46:51.781Z,99.90
2019-05-02T20:49:21.329Z,99.90
2019-05-02T20:51:51.819Z,99.90
2019-05-02T20:54:21.194Z,99.90
2019-05-02T20:56:51.962Z,99.90
2019-05-02T20:59:22.717Z,99.90
2019-05-02T21:01:53.178Z,99.90
2019-05-02T21:04:22.991Z,99.90
2019-05-02T21:07:10.753Z,99.90
2019-05-02T21:09:54.119Z,99.90
2019-05-02T21:12:23.409Z,99.90
2019-05-02T21:14:52.933Z,99.90
2019-05-02T21:17:22.225Z,99.90
2019-05-02T21:19:51.841Z,99.90
2019-05-02T21:22:24.213Z,99.90
2019-05-02T21:24:53.822Z,99.90
2019-05-02T21:27:23.114Z,99.90
2019-05-02T21:29:52.637Z,99.90
2019-05-02T21:32:22.890Z,99.90
2019-05-02T21:34:52.589Z,99.90
2019-05-02T21:37:22.723Z,99.90
2019-05-02T21:39:52.300Z,99.80
2019-05-02T21:42:22.613Z,99.30
2019-05-02T21:44:52.429Z,99.60
2019-05-02T21:47:22.498Z,99.90
2019-05-02T21:49:56.276Z,99.90
2019-05-02T21:52:31.810Z,99.60
2019-05-02T21:55:18.310Z,99.90
2019-05-02T21:57:47.783Z,99.30
2019-05-02T22:00:24.633Z,98.60
2019-05-02T22:02:55.533Z,98.60
2019-05-02T22:05:24.817Z,98.30
2019-05-02T22:07:54.118Z,99.00
2019-05-02T22:10:23.393Z,98.60
2019-05-02T22:12:52.693Z,98.00
2019-05-02T22:15:22.233Z,97.90
2019-05-02T22:17:52.267Z,98.00
2019-05-02T22:20:22.965Z,98.10
2019-05-02T22:22:53.410Z,97.50
2019-05-02T22:25:22.706Z,97.30
2019-05-02T22:27:54.057Z,98.30
2019-05-02T22:30:23.730Z,98.80
2019-05-02T22:32:54.319Z,98.00
2019-05-02T22:35:23.785Z,98.20
2019-05-02T22:37:57.384Z,98.50
2019-05-02T22:40:26.674Z,98.60
2019-05-02T22:42:55.956Z,99.20
2019-05-02T22:45:25.245Z,99.40
2019-05-02T22:47:54.517Z,99.80
2019-05-02T22:50:23.807Z,99.90
2019-05-02T22:52:53.318Z,99.90
2019-05-02T22:55:23.685Z,99.90
2019-05-02T22:57:53.253Z,99.90
2019-05-02T23:00:23.616Z,99.90
2019-05-02T23:02:52.929Z,99.90
2019-05-02T23:05:22.485Z,99.90
2019-05-02T23:07:52.675Z,99.90
2019-05-02T23:10:22.197Z,99.90
2019-05-02T23:12:51.788Z,99.90
2019-05-02T23:15:21.694Z,99.90
2019-05-02T23:17:52.274Z,99.90
2019-05-02T23:20:21.777Z,99.90
2019-05-02T23:22:52.598Z,99.90
2019-05-02T23:25:40.012Z,99.90
2019-05-02T23:28:10.934Z,99.90
2019-05-02T23:30:42.354Z,99.90
2019-05-02T23:33:12.978Z,99.90
2019-05-02T23:35:42.995Z,99.90
2019-05-02T23:38:12.629Z,99.90
2019-05-02T23:40:42.269Z,99.90
2019-05-02T23:43:12.515Z,99.90
2019-05-02T23:45:42.318Z,99.90
2019-05-02T23:48:12.621Z,99.90
2019-05-02T23:50:42.009Z,99.90
2019-05-02T23:53:12.796Z,99.90
2019-05-02T23:55:42.636Z,99.90
2019-05-02T23:58:12.019Z,99.90
